Monmouth, Maine
Current Conditions -  °F | °C
As of 3:53 PM on Saturday 20 Dec 2014 (Local Time) from KAUG Reporting Station
Overcast Overcast  
Wind Chill: 11°   Ceiling: 1300
Heat Index: 21°   Visibility: 10mi
Dew Point: 16°   Wind: 8mph
Humidity: 81%   Direction: 60°ENE
Pressure: 30.33"   Gusts: NA
Location:  44.24°N, 70.04°W
Report Text: KAUG 202053Z AUTO 06007KT 10SM OVC013 M06/M09 A3033 RMK AO2 SLP277 T10611089 53012
Loading
Personal Weather Stations






























Interactive Weather Map New forecast layout! Learn more

10-Day Weather Forecast

Advertisements
Track Severe Weather on mobile